Norfolk International Airport Norfolk US
ICAO: KORF
IATA: ORF
Category: Large
Scheduled Services: Yes

Elevation: 26 ft
TransAlt. 18000 ft.

Airport Communications:
APP:28.83
APP:118.9
ATIS:127.15
CLNC DEL:118.5
DEP:125.2
GND:121.9
LEESBURG RDO:116.9
TWR:120.8

KORF Zoom In..

If you have problems with the map follow the link
https://www.worldairports.se/pages/airport.php?
ICAO=KORF

Runways:

(A) RW 05 length 9001 ft width 150 ft
ILS 109.10 / hdg 47

(B) RW 14 length 4875 ft width 150 ft
---- / hdg 137

(C) RW 23 length 9001 ft width 150 ft
ILS 109.10 / hdg 227

(D) RW 32 length 4875 ft width 150 ft
---- / hdg 317

Location; KORF
Day. 16 / Time. 02.51 Zulu
* Altimeter: 29.69
* Temperature: 11° c. 51.8°f.
* Wind from: 240° Speed 15 kn with Gusts up to 21 kn.
Dewpoint: 10° c.
Visibility: 9 Statute Miles.
Clouds: Broken 600 ft.
Clouds: Overcast 1100 ft.

KORF 160251Z 24015G21KT 9SM BKN006 OVC011 11/10 A2969 RMK AO2 SLP054 T01060100 53016


Wind From 240°
Speed 15 kn.

 
 
jpsmedia.com for Web Design worldairports.se 2018   terms of use